This is the latest recevied weather packets stored in our database for station/object KR8N. If no packets are shown the sender has not sent any weather packets the latest 1 day(s).
| Time | Temp. | Humidity | Pressure | Rain* | Wind** | Luminosity | Snow |
|---|---|---|---|---|---|---|---|
| 1778102562 | 13.33° C | 93% | 1015 hPa | 0 mm | - | 174 W/m² | - |
| 1778101651 | 13.33° C | 94% | 1014.6 hPa | 1.27 mm | - | 197 W/m² | - |
| 1778101045 | 13.33° C | 94% | 1014.7 hPa | 0 mm | - | 56 W/m² | - |
| 1778097407 | 14.44° C | 93% | 1014.2 hPa | 0 mm | - | 65 W/m² | - |
| 1778096801 | 15° C | 93% | 1014 hPa | 0 mm | - | 78 W/m² | - |
| 1778096195 | 15° C | 93% | 1013.8 hPa | 0 mm | - | 191 W/m² | - |
| 1778095892 | 15° C | 93% | 1014 hPa | 0 mm | - | 119 W/m² | - |
| 1778093769 | 16.67° C | 92% | 1013.8 hPa | 0 mm | - | 145 W/m² | - |
| 1778093465 | 16.67° C | 91% | 1013.7 hPa | 0 mm | - | 170 W/m² | - |
| 1778092860 | 16.67° C | 91% | 1013.7 hPa | 1.78 mm | - | 99 W/m² | - |
| 1778091647 | 17.22° C | 88% | 1013.5 hPa | 4.32 mm | - | 233 W/m² | - |
| 1778089222 | 18.33° C | 81% | 1013.6 hPa | 0 mm | - | 79 W/m² | - |
| 1778088920 | 18.33° C | 81% | 1013.6 hPa | 0 mm | - | 131 W/m² | - |
| 1778088314 | 18.33° C | 80% | 1013.5 hPa | 0 mm | - | 337 W/m² | - |
| 1778086800 | 17.78° C | 84% | 1013.6 hPa | 0 mm | - | 68 W/m² | - |
| 1778085885 | 17.22° C | 85% | 1013.7 hPa | 0 mm | - | 92 W/m² | - |
| 1778085583 | 17.22° C | 85% | 1013.6 hPa | 0 mm | - | 113 W/m² | - |
| 1778084671 | 17.22° C | 85% | 1013.7 hPa | 0 mm | - | 117 W/m² | - |
| 1778084066 | 16.67° C | 86% | 1013.9 hPa | 0 mm | - | 72 W/m² | - |
| 1778083763 | 16.67° C | 86% | 1013.8 hPa | 0 mm | - | 81 W/m² | - |
| 1778083460 | 16.67° C | 87% | 1013.7 hPa | 0 mm | - | 102 W/m² | - |
| 1778082855 | 16.67° C | 86% | 1013.6 hPa | 0 mm | - | 48 W/m² | - |
| 1778081434 | 16.67° C | 86% | 1013.7 hPa | 0 mm | - | 71 W/m² | - |
| 1778081131 | 16.67° C | 86% | 1013.7 hPa | 0 mm | - | 83 W/m² | - |
| 1778079617 | 16.67° C | 87% | 1013.3 hPa | 0 mm | - | 137 W/m² | - |
* Rain latest hour (hover to see other rain measurements)
** Current wind speed in m/s (hover to see current wind gust speed)